Terminal Aerodrome Forecast
Issued by NWS Wilmington, OH

Current Version | Previous Version | Graphics & Text | Print | Product List | Glossary On
Versions: 1 2 3 4 5 6 7 8 9 10 11 12 13 14 15 16 17 18 19 20 21 22
821
FTUS41 KILN 222339
TAFCVG
TAF
KCVG 222339Z 2300/2406 06008KT P6SM SCT250
     FM231400 13008KT P6SM SCT150
     FM240000 16007KT P6SM BKN080=

USA.gov is the U.S. government's official web portal to all federal, state and local government web resources and services.